createdAt,value
2017-12-03T00:00:04.072Z,88.30
2017-12-03T00:02:30.450Z,82.68
2017-12-03T00:04:56.839Z,84.32
2017-12-03T00:07:23.978Z,82.75
2017-12-03T00:09:50.371Z,91.10
2017-12-03T00:12:16.748Z,89.00
2017-12-03T00:14:43.160Z,93.28
2017-12-03T00:17:09.565Z,86.25
2017-12-03T00:19:35.964Z,94.32
2017-12-03T00:22:02.407Z,88.70
2017-12-03T00:24:28.786Z,91.32
2017-12-03T00:26:55.423Z,101.55
2017-12-03T00:29:21.869Z,80.95
2017-12-03T00:31:48.249Z,91.85
2017-12-03T00:34:14.695Z,85.62
2017-12-03T00:36:41.093Z,95.30
2017-12-03T00:39:08.226Z,91.20
2017-12-03T00:41:34.604Z,76.40
2017-12-03T00:44:01.012Z,79.85
2017-12-03T00:46:28.168Z,84.85
2017-12-03T00:48:54.577Z,80.43
2017-12-03T00:51:21.030Z,94.95
2017-12-03T00:53:47.427Z,91.60
2017-12-03T00:56:13.807Z,86.47
2017-12-03T00:58:40.942Z,82.60
2017-12-03T01:01:07.342Z,79.70
2017-12-03T01:03:34.543Z,89.78
2017-12-03T01:06:01.655Z,74.75
2017-12-03T01:08:28.810Z,86.72
2017-12-03T01:10:59.645Z,102.05
2017-12-03T01:13:26.811Z,76.70
2017-12-03T01:15:53.211Z,86.55
2017-12-03T01:18:19.689Z,89.32
2017-12-03T01:20:46.099Z,82.10
2017-12-03T01:23:13.223Z,85.78
2017-12-03T01:25:39.632Z,85.70
2017-12-03T01:28:06.027Z,87.18
2017-12-03T01:30:32.460Z,79.75
2017-12-03T01:32:58.856Z,81.32
2017-12-03T01:35:25.250Z,80.80
2017-12-03T01:37:51.658Z,83.22
2017-12-03T01:40:18.122Z,81.68
2017-12-03T01:42:44.565Z,77.50
2017-12-03T01:45:10.968Z,77.37
2017-12-03T01:47:37.413Z,83.15
2017-12-03T01:50:03.817Z,79.35
2017-12-03T01:52:30.232Z,75.43
2017-12-03T01:54:57.399Z,79.30
2017-12-03T01:57:23.862Z,79.10
2017-12-03T01:59:50.294Z,75.35
2017-12-03T02:02:16.703Z,73.97
2017-12-03T02:04:43.102Z,79.07
2017-12-03T02:07:10.303Z,80.47
2017-12-03T02:09:36.802Z,79.43
2017-12-03T02:12:03.233Z,77.00
2017-12-03T02:14:30.377Z,77.80
2017-12-03T02:16:57.544Z,84.13
2017-12-03T02:19:24.713Z,82.47
2017-12-03T02:21:51.135Z,80.85
2017-12-03T02:24:17.561Z,73.50
2017-12-03T02:26:43.972Z,92.40
2017-12-03T02:29:11.167Z,79.25
2017-12-03T02:31:37.575Z,71.30
2017-12-03T02:34:04.718Z,76.78
2017-12-03T02:36:31.124Z,84.00
2017-12-03T02:38:57.519Z,83.28
2017-12-03T02:41:23.935Z,79.62
2017-12-03T02:43:50.390Z,77.85
2017-12-03T02:46:16.787Z,74.03
2017-12-03T02:48:43.210Z,71.60
2017-12-03T02:51:09.604Z,67.37
2017-12-03T02:53:36.036Z,72.43
2017-12-03T02:56:02.494Z,66.87
2017-12-03T02:58:29.685Z,78.47
2017-12-03T03:00:56.188Z,64.87
2017-12-03T03:03:22.659Z,83.45
2017-12-03T03:05:49.110Z,76.72
2017-12-03T03:08:15.515Z,74.28
2017-12-03T03:10:41.958Z,83.87
2017-12-03T03:13:08.346Z,78.72
2017-12-03T03:15:34.785Z,79.78
2017-12-03T03:18:01.958Z,83.50
2017-12-03T03:20:28.372Z,68.78
2017-12-03T03:22:55.578Z,74.43
2017-12-03T03:25:22.031Z,74.20
2017-12-03T03:27:48.444Z,73.97
2017-12-03T03:30:14.942Z,64.62
2017-12-03T03:32:41.362Z,70.40
2017-12-03T03:35:07.818Z,70.20
2017-12-03T03:37:34.262Z,76.03
2017-12-03T03:40:01.449Z,70.30
2017-12-03T03:42:28.636Z,80.38
2017-12-03T03:44:55.043Z,64.47
2017-12-03T03:47:22.191Z,63.80
2017-12-03T03:49:49.336Z,67.57
2017-12-03T03:52:16.477Z,70.18
2017-12-03T03:54:43.643Z,70.53
2017-12-03T03:57:10.847Z,64.55
2017-12-03T03:59:37.271Z,69.37
2017-12-03T04:02:04.463Z,59.35
2017-12-03T04:04:30.948Z,69.95
2017-12-03T04:06:57.351Z,62.60
2017-12-03T04:09:23.744Z,61.47
2017-12-03T04:12:03.862Z,60.92
2017-12-03T04:14:30.274Z,56.70
2017-12-03T04:17:10.648Z,61.77
2017-12-03T04:19:37.120Z,67.22
2017-12-03T04:22:03.547Z,58.10
2017-12-03T04:24:29.967Z,60.78
2017-12-03T04:26:56.395Z,64.40
2017-12-03T04:29:22.967Z,52.55
2017-12-03T04:31:49.441Z,73.87
2017-12-03T04:34:15.871Z,55.92
2017-12-03T04:36:42.310Z,67.90
2017-12-03T04:39:08.706Z,69.40
2017-12-03T04:41:35.146Z,64.05
2017-12-03T04:44:02.364Z,61.22
2017-12-03T04:46:28.826Z,63.45
2017-12-03T04:48:56.021Z,64.20
2017-12-03T04:51:22.522Z,70.23
2017-12-03T04:53:49.738Z,62.97
2017-12-03T04:56:16.175Z,68.07
2017-12-03T04:58:44.092Z,62.78
2017-12-03T05:01:10.504Z,65.10
2017-12-03T05:03:37.668Z,73.85
2017-12-03T05:06:04.104Z,66.10
2017-12-03T05:08:30.618Z,65.43
2017-12-03T05:10:57.842Z,76.07
2017-12-03T05:13:24.293Z,67.80
2017-12-03T05:15:51.502Z,69.18
2017-12-03T05:18:17.910Z,66.75
2017-12-03T05:20:44.380Z,66.93
2017-12-03T05:23:10.887Z,73.93
2017-12-03T05:25:37.310Z,64.50
2017-12-03T05:28:03.746Z,64.93
2017-12-03T05:30:30.339Z,70.27
2017-12-03T05:32:56.779Z,65.47
2017-12-03T05:35:23.198Z,71.65
2017-12-03T05:37:49.712Z,63.80
2017-12-03T05:40:16.150Z,72.53
2017-12-03T05:42:42.554Z,64.20
2017-12-03T05:45:08.998Z,72.97
2017-12-03T05:47:35.430Z,69.57
2017-12-03T05:50:01.854Z,62.80
2017-12-03T05:52:28.283Z,63.50
2017-12-03T05:54:54.796Z,64.75
2017-12-03T05:57:21.231Z,70.90
2017-12-03T05:59:48.398Z,60.72
2017-12-03T06:02:14.823Z,70.40
2017-12-03T06:04:41.242Z,72.28
2017-12-03T06:07:08.407Z,59.83
2017-12-03T06:09:34.842Z,65.57
2017-12-03T06:12:01.284Z,76.33
2017-12-03T06:14:27.704Z,59.90
2017-12-03T06:16:54.144Z,61.27
2017-12-03T06:19:20.626Z,62.40
2017-12-03T06:21:47.086Z,63.10
2017-12-03T06:24:14.255Z,63.90
2017-12-03T06:26:40.715Z,59.27
2017-12-03T06:29:07.131Z,57.15
2017-12-03T06:31:33.548Z,56.10
2017-12-03T06:33:59.982Z,72.18
2017-12-03T06:36:26.432Z,67.00
2017-12-03T06:38:52.918Z,60.25
2017-12-03T06:41:19.359Z,67.60
2017-12-03T06:43:46.578Z,63.33
2017-12-03T06:46:13.047Z,64.50
2017-12-03T06:48:40.247Z,61.65
2017-12-03T06:51:06.694Z,63.30
2017-12-03T06:53:33.108Z,67.03
2017-12-03T06:55:59.544Z,60.03
2017-12-03T06:58:25.985Z,64.37
2017-12-03T07:00:52.431Z,58.08
2017-12-03T07:03:18.900Z,59.47
2017-12-03T07:05:45.377Z,53.87
2017-12-03T07:08:11.821Z,58.08
2017-12-03T07:10:38.270Z,55.95
2017-12-03T07:13:04.712Z,61.83
2017-12-03T07:15:31.185Z,55.88
2017-12-03T07:17:57.680Z,58.90
2017-12-03T07:20:24.153Z,55.97
2017-12-03T07:22:50.589Z,55.20
2017-12-03T07:25:17.043Z,52.55
2017-12-03T07:27:43.521Z,56.37
2017-12-03T07:30:09.956Z,51.37
2017-12-03T07:32:36.429Z,65.35
2017-12-03T07:35:02.903Z,61.58
2017-12-03T07:37:29.389Z,53.85
2017-12-03T07:39:55.998Z,62.05
2017-12-03T07:42:23.224Z,54.88
2017-12-03T07:44:49.697Z,55.47
2017-12-03T07:47:16.967Z,69.00
2017-12-03T07:49:43.447Z,131.87
2017-12-03T07:52:10.646Z,70.53
2017-12-03T07:54:37.111Z,62.27
2017-12-03T07:57:03.590Z,50.67
2017-12-03T07:59:30.022Z,54.37
2017-12-03T08:01:56.412Z,44.50
2017-12-03T08:04:22.864Z,51.73
2017-12-03T08:06:49.312Z,42.50
2017-12-03T08:09:15.780Z,47.17
2017-12-03T08:11:42.270Z,51.33
2017-12-03T08:14:09.460Z,56.67
2017-12-03T08:16:35.906Z,59.07
2017-12-03T08:19:02.359Z,60.47
2017-12-03T08:21:28.845Z,56.87
2017-12-03T08:23:56.077Z,54.90
2017-12-03T08:26:23.991Z,60.70
2017-12-03T08:28:50.469Z,59.00
2017-12-03T08:31:16.950Z,68.47
2017-12-03T08:33:43.670Z,55.90
2017-12-03T08:36:10.872Z,63.00
2017-12-03T08:38:37.292Z,59.40
2017-12-03T08:41:03.711Z,63.00
2017-12-03T08:43:30.160Z,67.60
2017-12-03T08:45:56.658Z,58.23
2017-12-03T08:48:23.869Z,60.03
2017-12-03T08:50:50.532Z,63.10
2017-12-03T08:53:16.996Z,61.37
2017-12-03T08:55:43.495Z,55.27
2017-12-03T08:58:10.681Z,53.37
2017-12-03T09:00:37.110Z,54.63
2017-12-03T09:03:04.284Z,51.90
2017-12-03T09:05:31.470Z,53.57
2017-12-03T09:07:57.933Z,57.87
2017-12-03T09:10:24.370Z,40.83
2017-12-03T09:12:51.616Z,53.43
2017-12-03T09:15:18.812Z,50.10
2017-12-03T09:17:45.330Z,52.90
2017-12-03T09:20:11.772Z,48.07
2017-12-03T09:22:38.215Z,51.97
2017-12-03T09:25:04.691Z,56.27
2017-12-03T09:27:31.706Z,52.30
2017-12-03T09:29:58.139Z,63.73
2017-12-03T09:32:24.564Z,57.47
2017-12-03T09:34:51.037Z,42.37
2017-12-03T09:37:17.473Z,50.80
2017-12-03T09:39:44.647Z,49.63
2017-12-03T09:42:11.820Z,54.03
2017-12-03T09:44:38.270Z,42.07
2017-12-03T09:47:04.674Z,49.03
2017-12-03T09:49:31.099Z,43.03
2017-12-03T09:51:57.597Z,47.00
2017-12-03T09:54:23.998Z,45.97
2017-12-03T09:56:50.478Z,46.43
2017-12-03T09:59:17.635Z,54.10
2017-12-03T10:01:44.820Z,53.40
2017-12-03T10:04:11.277Z,47.63
2017-12-03T10:06:37.734Z,52.40
2017-12-03T10:09:04.168Z,46.30
2017-12-03T10:11:30.600Z,44.57
2017-12-03T10:13:57.026Z,48.00
2017-12-03T10:16:24.426Z,54.20
2017-12-03T10:18:51.020Z,43.60
2017-12-03T10:21:17.472Z,45.63
2017-12-03T10:23:44.663Z,45.47
2017-12-03T10:26:11.140Z,43.93
2017-12-03T10:28:38.367Z,41.27
2017-12-03T10:31:04.822Z,44.07
2017-12-03T10:33:32.009Z,44.37
2017-12-03T10:35:58.489Z,43.03
2017-12-03T10:38:24.922Z,42.30
2017-12-03T10:40:51.387Z,41.80
2017-12-03T10:43:18.611Z,51.93
2017-12-03T10:45:45.014Z,39.90
2017-12-03T10:48:11.419Z,48.43
2017-12-03T10:50:37.852Z,39.30
2017-12-03T10:53:04.250Z,44.20
2017-12-03T10:55:30.642Z,36.90
2017-12-03T10:57:57.123Z,38.60
2017-12-03T11:00:24.465Z,40.70
2017-12-03T11:02:51.068Z,32.07
2017-12-03T11:05:17.526Z,34.77
2017-12-03T11:07:43.988Z,37.97
2017-12-03T11:10:11.200Z,36.07
2017-12-03T11:12:37.669Z,44.00
2017-12-03T11:15:04.863Z,40.60
2017-12-03T11:17:31.276Z,35.17
2017-12-03T11:19:57.715Z,40.50
2017-12-03T11:22:24.176Z,35.80
2017-12-03T11:24:50.651Z,38.07
2017-12-03T11:27:17.056Z,34.30
2017-12-03T11:29:43.471Z,30.40
2017-12-03T11:32:10.657Z,32.40
2017-12-03T11:34:37.843Z,30.13
2017-12-03T11:37:04.291Z,26.97
2017-12-03T11:39:30.765Z,29.13
2017-12-03T11:41:57.239Z,31.13
2017-12-03T11:44:23.634Z,32.30
2017-12-03T11:46:50.053Z,31.40
2017-12-03T11:49:16.434Z,27.70
2017-12-03T11:51:43.569Z,31.60
2017-12-03T11:54:09.988Z,29.83
2017-12-03T11:56:36.368Z,33.07
2017-12-03T11:59:02.752Z,31.10
2017-12-03T12:01:29.158Z,32.20
2017-12-03T12:03:55.603Z,33.80
2017-12-03T12:06:21.971Z,41.53
2017-12-03T12:08:49.151Z,42.30
2017-12-03T12:11:15.550Z,36.87
2017-12-03T12:13:42.688Z,40.20
2017-12-03T12:16:09.833Z,36.53
2017-12-03T12:18:36.269Z,39.67
2017-12-03T12:21:03.395Z,42.40
2017-12-03T12:23:29.784Z,44.63
2017-12-03T12:25:56.248Z,42.63
2017-12-03T12:28:22.649Z,42.13
2017-12-03T12:33:31.066Z,47.47
2017-12-03T12:35:58.206Z,47.70
2017-12-03T12:38:25.349Z,39.37
2017-12-03T12:40:52.474Z,42.10
2017-12-03T12:43:18.954Z,43.93
2017-12-03T12:45:45.335Z,48.33
2017-12-03T12:48:11.770Z,46.13
2017-12-03T12:50:38.213Z,42.40
2017-12-03T12:53:04.667Z,43.50
2017-12-03T12:55:31.854Z,48.23
2017-12-03T12:57:58.344Z,48.70
2017-12-03T13:00:25.531Z,36.10
2017-12-03T13:02:51.938Z,36.60
2017-12-03T13:05:19.179Z,35.43
2017-12-03T13:07:45.580Z,32.53
2017-12-03T13:10:12.017Z,30.13
2017-12-03T13:12:38.407Z,29.37
2017-12-03T13:15:04.808Z,18.43
2017-12-03T13:17:31.925Z,18.80
2017-12-03T13:19:58.340Z,20.27
2017-12-03T13:22:24.740Z,19.40
2017-12-03T13:24:51.908Z,22.60
2017-12-03T13:27:18.296Z,22.93
2017-12-03T13:29:44.683Z,23.03
2017-12-03T13:32:11.091Z,28.43
2017-12-03T13:34:38.216Z,26.47
2017-12-03T13:37:05.360Z,27.37
2017-12-03T13:39:31.753Z,25.40
2017-12-03T13:41:58.138Z,26.43
2017-12-03T13:44:25.266Z,31.10
2017-12-03T13:46:51.656Z,26.80
2017-12-03T13:49:18.071Z,29.10
2017-12-03T13:51:44.454Z,23.60
2017-12-03T13:54:10.965Z,27.70
2017-12-03T13:56:37.336Z,26.10
2017-12-03T13:59:04.523Z,35.17
2017-12-03T14:01:30.959Z,42.37
2017-12-03T14:03:57.377Z,26.63
2017-12-03T14:06:23.799Z,25.77
2017-12-03T14:08:50.292Z,31.43
2017-12-03T14:11:16.755Z,26.33
2017-12-03T14:13:43.925Z,24.57
2017-12-03T14:16:10.355Z,21.90
2017-12-03T14:18:37.563Z,23.67
2017-12-03T14:21:03.997Z,26.17
2017-12-03T14:23:30.442Z,20.57
2017-12-03T14:25:57.628Z,21.63
2017-12-03T14:28:23.998Z,15.83
2017-12-03T14:30:50.355Z,19.07
2017-12-03T14:33:17.630Z,17.87
2017-12-03T14:35:44.765Z,19.90
2017-12-03T14:38:11.226Z,22.37
2017-12-03T14:40:37.665Z,17.50
2017-12-03T14:43:04.807Z,18.70
2017-12-03T14:45:31.247Z,16.77
2017-12-03T14:47:57.712Z,14.83
2017-12-03T14:50:24.380Z,16.50
2017-12-03T14:52:50.815Z,15.83
2017-12-03T14:55:18.009Z,15.90
2017-12-03T14:57:44.395Z,19.03
2017-12-03T15:00:10.803Z,24.60
2017-12-03T15:02:38.687Z,18.60
2017-12-03T15:05:05.117Z,18.73
2017-12-03T15:07:31.552Z,19.83
2017-12-03T15:09:58.724Z,21.27
2017-12-03T15:12:26.032Z,19.33
2017-12-03T15:14:52.560Z,23.00
2017-12-03T15:17:18.995Z,25.00
2017-12-03T15:19:45.474Z,18.70
2017-12-03T15:22:12.647Z,29.63
2017-12-03T15:24:39.808Z,20.20
2017-12-03T15:27:06.235Z,23.30
2017-12-03T15:29:32.669Z,20.30
2017-12-03T15:31:59.107Z,24.63
2017-12-03T15:34:25.562Z,21.70
2017-12-03T15:36:51.982Z,26.57
2017-12-03T15:39:18.435Z,30.60
2017-12-03T15:41:44.885Z,27.87
2017-12-03T15:44:11.381Z,32.90
2017-12-03T15:46:37.826Z,26.73
2017-12-03T15:49:04.277Z,29.57
2017-12-03T15:51:30.754Z,26.80
2017-12-03T15:53:57.205Z,31.57
2017-12-03T15:56:23.658Z,35.57
2017-12-03T15:58:50.119Z,37.03
2017-12-03T16:01:16.598Z,36.53
2017-12-03T16:03:43.755Z,35.10
2017-12-03T16:06:10.208Z,38.90
2017-12-03T16:08:38.148Z,45.37
2017-12-03T16:11:06.430Z,43.13
2017-12-03T16:13:32.864Z,40.07
2017-12-03T16:15:59.305Z,45.33
2017-12-03T16:18:25.695Z,35.80
2017-12-03T16:20:53.003Z,48.40
2017-12-03T16:23:19.424Z,123.00
2017-12-03T16:25:45.851Z,77.80
2017-12-03T16:28:12.301Z,56.47
2017-12-03T16:30:38.727Z,71.00
2017-12-03T16:33:05.145Z,70.80
2017-12-03T16:35:31.947Z,52.53
2017-12-03T16:37:58.363Z,28.37
2017-12-03T16:40:24.777Z,29.47
2017-12-03T16:42:51.259Z,28.70
2017-12-03T16:45:18.468Z,23.30
2017-12-03T16:47:44.935Z,27.50
2017-12-03T16:50:12.293Z,26.93
2017-12-03T16:52:38.723Z,20.10
2017-12-03T16:55:06.075Z,25.40
2017-12-03T16:57:32.533Z,39.30
2017-12-03T16:59:59.724Z,29.00
2017-12-03T17:02:26.166Z,30.90
2017-12-03T17:04:52.587Z,24.63
2017-12-03T17:07:18.976Z,20.90
2017-12-03T17:09:45.380Z,17.93
2017-12-03T17:12:12.679Z,19.43
2017-12-03T17:14:39.107Z,14.90
2017-12-03T17:17:05.523Z,29.03
2017-12-03T17:19:31.944Z,18.67
2017-12-03T17:21:59.191Z,19.60
2017-12-03T17:24:26.322Z,16.40
2017-12-03T17:26:52.812Z,15.10
2017-12-03T17:29:19.217Z,15.10
2017-12-03T17:31:46.411Z,20.80
2017-12-03T17:34:12.921Z,15.63
2017-12-03T17:36:39.320Z,15.40
2017-12-03T17:39:05.714Z,16.30
2017-12-03T17:41:32.104Z,17.17
2017-12-03T17:43:59.255Z,19.53
2017-12-03T17:46:26.440Z,19.80
2017-12-03T17:48:52.834Z,18.58
2017-12-03T17:51:19.988Z,19.00
2017-12-03T17:53:46.431Z,15.37
2017-12-03T17:56:12.840Z,18.53
2017-12-03T17:58:40.013Z,19.33
2017-12-03T18:01:07.133Z,20.87
2017-12-03T18:03:33.518Z,24.42
2017-12-03T18:05:59.919Z,20.70
2017-12-03T18:08:27.055Z,20.03
2017-12-03T18:10:54.202Z,18.27
2017-12-03T18:13:21.326Z,24.70
2017-12-03T18:15:48.599Z,32.60
2017-12-03T18:18:15.743Z,20.47
2017-12-03T18:20:42.155Z,22.77
2017-12-03T18:23:08.601Z,20.30
2017-12-03T18:25:35.016Z,21.77
2017-12-03T18:28:01.430Z,23.33
2017-12-03T18:30:28.089Z,24.20
2017-12-03T18:32:54.514Z,28.77
2017-12-03T18:35:20.920Z,24.17
2017-12-03T18:37:47.345Z,22.17
2017-12-03T18:40:13.814Z,25.10
2017-12-03T18:42:40.330Z,42.90
2017-12-03T18:45:06.768Z,49.15
2017-12-03T18:47:33.199Z,25.80
2017-12-03T18:49:59.644Z,38.17
2017-12-03T18:52:26.078Z,42.67
2017-12-03T18:54:52.642Z,37.10
2017-12-03T18:57:19.119Z,43.80
2017-12-03T18:59:45.601Z,31.33
2017-12-03T19:02:12.030Z,34.55
2017-12-03T19:04:38.463Z,28.75
2017-12-03T19:07:05.636Z,23.83
2017-12-03T19:09:32.828Z,24.85
2017-12-03T19:11:59.274Z,27.17
2017-12-03T19:14:25.720Z,28.70
2017-12-03T19:16:52.134Z,30.07
2017-12-03T19:19:18.608Z,26.08
2017-12-03T19:21:45.794Z,26.67
2017-12-03T19:24:12.258Z,31.17
2017-12-03T19:26:38.777Z,29.87
2017-12-03T19:29:06.724Z,24.80
2017-12-03T19:31:33.137Z,27.77
2017-12-03T19:34:00.299Z,28.25
2017-12-03T19:36:27.576Z,27.42
2017-12-03T19:38:53.979Z,26.73
2017-12-03T19:41:21.143Z,26.30
2017-12-03T19:43:47.706Z,31.15
2017-12-03T19:46:14.217Z,30.02
2017-12-03T19:48:40.668Z,29.65
2017-12-03T19:51:07.082Z,27.95
2017-12-03T19:53:33.471Z,28.20
2017-12-03T19:55:59.873Z,27.57
2017-12-03T19:58:26.410Z,35.90
2017-12-03T20:00:52.915Z,29.02
2017-12-03T20:03:19.347Z,31.40
2017-12-03T20:05:45.830Z,30.70
2017-12-03T20:08:12.328Z,30.70
2017-12-03T20:10:38.748Z,29.63
2017-12-03T20:13:05.193Z,33.03
2017-12-03T20:15:31.629Z,35.58
2017-12-03T20:17:58.079Z,34.35
2017-12-03T20:20:24.485Z,29.87
2017-12-03T20:22:50.933Z,31.10
2017-12-03T20:25:17.356Z,29.00
2017-12-03T20:27:43.839Z,31.40
2017-12-03T20:30:10.294Z,33.80
2017-12-03T20:32:37.776Z,30.02
2017-12-03T20:35:04.207Z,30.35
2017-12-03T20:37:30.696Z,32.15
2017-12-03T20:39:57.183Z,34.10
2017-12-03T20:42:23.635Z,30.00
2017-12-03T20:44:50.157Z,30.42
2017-12-03T20:47:16.580Z,30.50
2017-12-03T20:49:43.031Z,30.30
2017-12-03T20:52:09.471Z,36.63
2017-12-03T20:54:35.943Z,31.10
2017-12-03T20:57:03.094Z,28.45
2017-12-03T20:59:30.261Z,30.30
2017-12-03T21:01:56.743Z,34.15
2017-12-03T21:04:23.615Z,30.13
2017-12-03T21:06:50.047Z,33.35
2017-12-03T21:09:16.482Z,29.53
2017-12-03T21:11:43.623Z,31.70
2017-12-03T21:14:10.052Z,30.70
2017-12-03T21:16:37.231Z,30.03
2017-12-03T21:19:04.408Z,29.12
2017-12-03T21:21:30.827Z,28.73
2017-12-03T21:23:57.273Z,32.60
2017-12-03T21:26:24.127Z,27.60
2017-12-03T21:28:50.531Z,28.83
2017-12-03T21:31:17.695Z,29.87
2017-12-03T21:33:44.178Z,31.27
2017-12-03T21:36:10.710Z,30.92
2017-12-03T21:38:37.143Z,31.70
2017-12-03T21:41:04.307Z,30.35
2017-12-03T21:43:31.489Z,30.20
2017-12-03T21:45:57.883Z,30.00
2017-12-03T21:48:24.351Z,32.93
2017-12-03T21:50:50.758Z,35.50
2017-12-03T21:53:17.904Z,30.23
2017-12-03T21:55:44.288Z,33.47
2017-12-03T21:58:10.687Z,31.23
2017-12-03T22:00:37.219Z,34.22
2017-12-03T22:03:04.362Z,30.90
2017-12-03T22:05:31.473Z,30.53
2017-12-03T22:07:57.889Z,33.10
2017-12-03T22:10:24.322Z,35.95
2017-12-03T22:12:50.760Z,34.70
2017-12-03T22:15:17.152Z,30.83
2017-12-03T22:17:44.294Z,36.30
2017-12-03T22:20:11.432Z,33.45
2017-12-03T22:22:38.596Z,36.03
2017-12-03T22:25:05.738Z,34.70
2017-12-03T22:27:32.897Z,34.10
2017-12-03T22:30:00.035Z,36.13
2017-12-03T22:32:27.134Z,34.13
2017-12-03T22:34:53.521Z,28.58
2017-12-03T22:37:20.667Z,35.88
2017-12-03T22:39:47.836Z,33.30
2017-12-03T22:42:14.217Z,32.30
2017-12-03T22:44:40.597Z,34.30
2017-12-03T22:47:08.471Z,35.43
2017-12-03T22:49:35.022Z,32.97
2017-12-03T22:52:01.415Z,33.88
2017-12-03T22:54:28.555Z,30.92
2017-12-03T22:56:54.942Z,30.88
2017-12-03T22:59:21.318Z,31.37
2017-12-03T23:01:48.480Z,34.20
2017-12-03T23:04:15.654Z,39.45
2017-12-03T23:06:47.073Z,29.50
2017-12-03T23:09:13.459Z,30.03
2017-12-03T23:11:39.828Z,29.63
2017-12-03T23:14:06.235Z,30.47
2017-12-03T23:16:32.593Z,30.13
2017-12-03T23:18:58.972Z,29.03
2017-12-03T23:21:25.428Z,32.40
2017-12-03T23:23:51.966Z,33.30
2017-12-03T23:26:18.423Z,31.97
2017-12-03T23:28:45.624Z,32.03
2017-12-03T23:31:12.038Z,32.47
2017-12-03T23:33:38.466Z,33.42
2017-12-03T23:36:04.907Z,31.83
2017-12-03T23:38:31.374Z,30.27
2017-12-03T23:40:57.801Z,30.00
2017-12-03T23:43:24.234Z,31.40
2017-12-03T23:45:50.708Z,30.15
2017-12-03T23:48:17.889Z,27.85
2017-12-03T23:50:45.070Z,32.30
2017-12-03T23:53:11.495Z,33.20
2017-12-03T23:55:37.906Z,32.28
2017-12-03T23:58:04.406Z,29.87
